AOK weather

Karpathos Airport
Karpathos Island, Dodecanese, Greece

Public forecast

Using degrees Celsius for public forecast. Weather courtesy of forecast.io.

Current aviation weather report (METAR) for Karpathos Airport

Retrieved 2020/01/18 11:20 UTC (0 seconds ago):

LGKP 181120Z 31017KT 9999 SCT025 15/06 Q1016

Aviation forecast (TAF) for Karpathos Airport

Forecast is more than 12 hours old.

Retrieved 2019/11/28 15:42 UTC (2 months ago):

TAF TAF LGKP 281400Z 2815/2903 24012KT 9999 FEW018